createdAt,value
2022-12-11T00:00:46.565Z,100915.19
2022-12-11T00:03:16.064Z,100914.44
2022-12-11T00:05:44.555Z,100913.56
2022-12-11T00:08:12.102Z,100910.16
2022-12-11T00:10:39.065Z,100910.97
2022-12-11T00:13:05.778Z,100904.78
2022-12-11T00:15:32.599Z,100906.47
2022-12-11T00:17:59.128Z,100908.88
2022-12-11T00:20:25.692Z,100908.06
2022-12-11T00:22:52.291Z,100901.09
2022-12-11T00:25:18.862Z,100905.53
2022-12-11T00:27:46.748Z,100896.00
2022-12-11T00:30:14.335Z,100904.44
2022-12-11T00:32:40.868Z,100902.69
2022-12-11T00:35:08.048Z,100906.06
2022-12-11T00:37:35.011Z,100906.81
2022-12-11T00:40:01.635Z,100913.00
2022-12-11T00:42:28.127Z,100904.31
2022-12-11T00:44:56.366Z,100898.31
2022-12-11T00:47:22.979Z,100900.91
2022-12-11T00:49:50.125Z,100892.41
2022-12-11T00:52:18.066Z,100855.16
2022-12-11T00:54:45.493Z,100859.53
2022-12-11T00:57:12.006Z,100873.53
2022-12-11T00:59:38.777Z,100871.75
2022-12-11T01:02:05.401Z,100875.06
2022-12-11T01:04:32.287Z,100875.06
2022-12-11T01:06:58.812Z,100874.09
2022-12-11T01:09:43.927Z,100880.03
2022-12-11T01:12:10.447Z,100886.97
2022-12-11T01:14:36.972Z,100882.69
2022-12-11T01:17:04.398Z,100880.97
2022-12-11T01:19:30.941Z,100876.09
2022-12-11T01:21:57.493Z,100865.81
2022-12-11T01:24:24.089Z,100878.22
2022-12-11T01:26:50.620Z,100869.00
2022-12-11T01:29:17.112Z,100862.16
2022-12-11T01:31:43.627Z,100867.53
2022-12-11T01:34:10.250Z,100844.97
2022-12-11T01:36:36.738Z,100874.53
2022-12-11T01:39:03.862Z,100857.06
2022-12-11T01:41:31.874Z,100887.50
2022-12-11T01:44:28.688Z,100884.84
2022-12-11T01:46:55.297Z,100848.75
2022-12-11T01:49:24.262Z,100886.88
2022-12-11T01:52:01.531Z,100876.69
2022-12-11T01:54:29.625Z,100885.47
2022-12-11T01:57:00.672Z,100876.13
2022-12-11T01:59:31.051Z,100874.66
2022-12-11T02:02:04.850Z,100880.59
2022-12-11T02:04:33.066Z,100878.84
2022-12-11T02:06:59.753Z,100868.66
2022-12-11T02:09:31.577Z,100879.16
2022-12-11T02:12:22.803Z,100869.72
2022-12-11T02:15:07.830Z,100886.09
2022-12-11T02:17:41.211Z,100877.53
2022-12-11T02:20:16.466Z,100876.84
2022-12-11T02:23:01.803Z,100879.47
2022-12-11T02:25:55.942Z,100875.19
2022-12-11T02:28:44.798Z,100874.25
2022-12-11T02:31:30.186Z,100865.88
2022-12-11T02:34:01.173Z,100873.53
2022-12-11T02:36:32.355Z,100850.97
2022-12-11T02:39:01.272Z,100863.31
2022-12-11T02:41:29.780Z,100846.97
2022-12-11T02:43:58.000Z,100858.28
2022-12-11T02:46:25.716Z,100847.09
2022-12-11T02:48:53.804Z,100853.31
2022-12-11T02:51:27.016Z,100837.81
2022-12-11T02:53:58.094Z,100857.53
2022-12-11T02:56:32.899Z,100855.91
2022-12-11T02:59:03.461Z,100857.66
2022-12-11T03:01:30.520Z,100847.25
2022-12-11T03:03:58.194Z,100853.41
2022-12-11T03:06:29.069Z,100850.00
2022-12-11T03:08:55.587Z,100856.78
2022-12-11T03:11:22.142Z,100815.31
2022-12-11T03:13:48.813Z,100837.06
2022-12-11T03:16:29.626Z,100820.47
2022-12-11T03:19:04.795Z,100816.16
2022-12-11T03:21:44.154Z,100838.69
2022-12-11T03:24:27.215Z,100815.34
2022-12-11T03:27:00.959Z,100828.38
2022-12-11T03:29:39.547Z,100804.31
2022-12-11T03:32:13.474Z,100813.94
2022-12-11T03:34:58.221Z,100807.03
2022-12-11T03:37:27.643Z,100786.19
2022-12-11T03:40:03.205Z,100807.91
2022-12-11T03:42:30.854Z,100760.09
2022-12-11T03:44:59.901Z,100803.47
2022-12-11T03:47:28.888Z,100811.28
2022-12-11T03:49:58.362Z,100797.50
2022-12-11T03:52:27.432Z,100795.84
2022-12-11T03:54:56.812Z,100785.25
2022-12-11T03:57:27.348Z,100803.56
2022-12-11T03:59:53.935Z,100816.25
2022-12-11T04:02:20.495Z,100821.47
2022-12-11T04:04:47.021Z,100775.56
2022-12-11T04:07:13.680Z,100807.69
2022-12-11T04:09:40.227Z,100812.88
2022-12-11T04:12:06.810Z,100805.75
2022-12-11T04:14:52.004Z,100812.53
2022-12-11T04:17:38.744Z,100829.91
2022-12-11T04:20:25.047Z,100821.25
2022-12-11T04:23:09.824Z,100822.16
2022-12-11T04:25:36.415Z,100812.00
2022-12-11T04:28:03.002Z,100808.50
2022-12-11T04:30:34.089Z,100815.59
2022-12-11T04:33:01.798Z,100807.97
2022-12-11T04:35:28.642Z,100804.63
2022-12-11T04:37:55.147Z,100795.19
2022-12-11T04:40:21.933Z,100806.47
2022-12-11T04:42:48.545Z,100773.75
2022-12-11T04:45:15.173Z,100785.09
2022-12-11T04:47:41.897Z,100795.53
2022-12-11T04:50:11.026Z,100793.91
2022-12-11T04:52:37.699Z,100782.78
2022-12-11T04:55:05.824Z,100776.88
2022-12-11T04:57:32.383Z,100751.91
2022-12-11T04:59:59.957Z,100769.44
2022-12-11T05:02:26.978Z,100772.88
2022-12-11T05:04:53.757Z,100748.84
2022-12-11T05:07:20.302Z,100773.16
2022-12-11T05:09:46.875Z,100759.31
2022-12-11T05:12:13.396Z,100772.34
2022-12-11T05:14:39.933Z,100785.38
2022-12-11T05:17:06.488Z,100782.69
2022-12-11T05:19:33.203Z,100785.38
2022-12-11T05:21:59.816Z,100793.16
2022-12-11T05:24:26.358Z,100788.84
2022-12-11T05:26:52.883Z,100786.47
2022-12-11T05:29:19.436Z,100778.78
2022-12-11T05:31:46.079Z,100749.50
2022-12-11T05:34:12.952Z,100739.19
2022-12-11T05:36:39.489Z,100753.19
2022-12-11T05:39:06.067Z,100745.44
2022-12-11T05:41:33.128Z,100764.63
2022-12-11T05:44:00.176Z,100768.19
2022-12-11T05:46:29.713Z,100768.13
2022-12-11T05:48:58.526Z,100775.91
2022-12-11T05:51:25.542Z,100770.03
2022-12-11T05:53:53.014Z,100759.06
2022-12-11T05:56:22.595Z,100754.81
2022-12-11T05:58:50.330Z,100767.78
2022-12-11T06:01:26.145Z,100767.78
2022-12-11T06:03:54.159Z,100774.63
2022-12-11T06:06:20.944Z,100764.22
2022-12-11T06:08:51.268Z,100766.88
2022-12-11T06:11:23.567Z,100768.78
2022-12-11T06:13:51.168Z,100747.34
2022-12-11T06:16:17.827Z,100761.22
2022-12-11T06:18:45.362Z,100767.13
2022-12-11T06:21:16.026Z,100739.44
2022-12-11T06:23:43.775Z,100764.69
2022-12-11T06:26:11.120Z,100770.66
2022-12-11T06:28:37.881Z,100774.03
2022-12-11T06:31:04.649Z,100754.38
2022-12-11T06:33:32.062Z,100768.16
2022-12-11T06:36:13.927Z,100768.97
2022-12-11T06:38:40.567Z,100768.22
2022-12-11T06:41:08.234Z,100771.69
2022-12-11T06:43:37.088Z,100769.19
2022-12-11T06:46:09.197Z,100741.50
2022-12-11T06:48:36.134Z,100757.25
2022-12-11T06:51:07.210Z,100749.44
2022-12-11T06:53:33.941Z,100733.06
2022-12-11T06:56:10.579Z,100717.50
2022-12-11T06:58:37.691Z,100728.81
2022-12-11T07:01:26.960Z,100762.38
2022-12-11T07:03:58.356Z,100753.00
2022-12-11T07:06:26.730Z,100704.75
2022-12-11T07:08:53.629Z,100754.00
2022-12-11T07:11:21.507Z,100754.66
2022-12-11T07:13:48.852Z,100760.84
2022-12-11T07:16:17.392Z,100756.66
2022-12-11T07:18:49.856Z,100754.09
2022-12-11T07:21:16.960Z,100742.88
2022-12-11T07:23:43.646Z,100765.19
2022-12-11T07:26:16.090Z,100760.06
2022-12-11T07:28:43.141Z,100761.72
2022-12-11T07:31:11.888Z,100762.59
2022-12-11T07:33:38.443Z,100755.75
2022-12-11T07:36:07.077Z,100751.59
2022-12-11T07:38:34.189Z,100743.69
2022-12-11T07:41:02.066Z,100765.34
2022-12-11T07:43:28.748Z,100741.06
2022-12-11T07:45:55.340Z,100741.06
2022-12-11T07:48:21.858Z,100718.91
2022-12-11T07:50:48.372Z,100747.47
2022-12-11T07:53:14.989Z,100755.31
2022-12-11T07:55:41.791Z,100727.81
2022-12-11T07:58:08.454Z,100747.66
2022-12-11T08:00:35.305Z,100675.16
2022-12-11T08:03:02.080Z,100709.47
2022-12-11T08:05:28.823Z,100720.63
2022-12-11T08:07:55.757Z,100688.81
2022-12-11T08:10:23.187Z,100738.03
2022-12-11T08:12:49.822Z,100703.50
2022-12-11T08:15:16.541Z,100718.28
2022-12-11T08:17:43.114Z,100739.09
2022-12-11T08:20:10.656Z,100759.03
2022-12-11T08:22:37.350Z,100708.94
2022-12-11T08:25:04.291Z,100688.41
2022-12-11T08:27:30.935Z,100703.13
2022-12-11T08:29:57.480Z,100718.72
2022-12-11T08:32:24.052Z,100724.91
2022-12-11T08:34:51.827Z,100746.47
2022-12-11T08:37:18.593Z,100732.66
2022-12-11T08:39:47.056Z,100708.50
2022-12-11T08:42:13.692Z,100759.50
2022-12-11T08:44:40.431Z,100764.69
2022-12-11T08:47:07.054Z,100750.88
2022-12-11T08:49:34.722Z,100732.69
2022-12-11T08:52:03.078Z,100731.75
2022-12-11T08:54:29.670Z,100740.31
2022-12-11T08:56:58.148Z,100749.03
2022-12-11T08:59:27.571Z,100744.84
2022-12-11T09:01:55.361Z,100757.88
2022-12-11T09:04:23.093Z,100735.38
2022-12-11T09:06:49.895Z,100718.22
2022-12-11T09:09:16.712Z,100729.59
2022-12-11T09:11:43.806Z,100743.38
2022-12-11T09:14:10.448Z,100754.63
2022-12-11T09:16:40.605Z,100747.81
2022-12-11T09:19:11.043Z,100739.06
2022-12-11T09:21:37.696Z,100726.34
2022-12-11T09:24:04.673Z,100728.81
2022-12-11T09:26:31.337Z,100748.72
2022-12-11T09:28:58.989Z,100728.94
2022-12-11T09:31:31.717Z,100755.03
2022-12-11T09:34:04.884Z,100761.94
2022-12-11T09:36:31.607Z,100706.75
2022-12-11T09:39:04.564Z,100716.16
2022-12-11T09:42:10.575Z,100725.69
2022-12-11T09:44:43.389Z,100759.47
2022-12-11T09:47:33.221Z,100757.06
2022-12-11T09:50:23.680Z,100749.25
2022-12-11T09:53:35.944Z,100729.50
2022-12-11T09:56:17.219Z,100754.53
2022-12-11T09:59:11.645Z,100751.22
2022-12-11T10:01:54.912Z,100748.69
2022-12-11T10:04:38.122Z,100753.97
2022-12-11T10:07:16.045Z,100721.13
2022-12-11T10:10:13.603Z,100755.97
2022-12-11T10:12:55.647Z,100745.81
2022-12-11T10:15:49.421Z,100713.91
2022-12-11T10:18:19.305Z,100754.50
2022-12-11T10:20:47.355Z,100737.38
2022-12-11T10:23:21.312Z,100721.91
2022-12-11T10:26:17.860Z,100714.22
2022-12-11T10:28:44.528Z,100706.47
2022-12-11T10:31:24.565Z,100744.50
2022-12-11T10:34:19.167Z,100747.13
2022-12-11T10:36:45.829Z,100740.16
2022-12-11T10:39:22.585Z,100723.91
2022-12-11T10:41:50.770Z,100730.75
2022-12-11T10:44:19.993Z,100716.31
2022-12-11T10:46:48.964Z,100699.09
2022-12-11T10:49:27.479Z,100736.31
2022-12-11T10:51:58.525Z,100743.25
2022-12-11T10:54:34.244Z,100742.44
2022-12-11T10:57:03.445Z,100703.63
2022-12-11T10:59:43.908Z,100726.19
2022-12-11T11:02:25.661Z,100727.13
2022-12-11T11:04:54.411Z,100714.13
2022-12-11T11:07:26.828Z,100687.38
2022-12-11T11:10:14.328Z,100729.88
2022-12-11T11:12:42.391Z,100731.59
2022-12-11T11:15:14.052Z,100668.59
2022-12-11T11:17:56.435Z,100722.13
2022-12-11T11:20:30.942Z,100715.31
2022-12-11T11:23:01.080Z,100718.78
2022-12-11T11:25:33.544Z,100724.81
2022-12-11T11:28:01.461Z,100717.97
2022-12-11T11:30:31.836Z,100697.22
2022-12-11T11:33:02.600Z,100692.94
2022-12-11T11:35:31.541Z,100726.63
2022-12-11T11:38:20.138Z,100669.66
2022-12-11T11:41:25.631Z,100715.53
2022-12-11T11:43:54.022Z,100712.16
2022-12-11T11:46:26.624Z,100658.78
2022-12-11T11:49:04.455Z,100703.69
2022-12-11T11:51:36.568Z,100690.78
2022-12-11T11:54:21.373Z,100679.59
2022-12-11T11:56:51.762Z,100677.06
2022-12-11T11:59:36.271Z,100646.13
2022-12-11T12:02:13.292Z,100644.56
2022-12-11T12:04:39.943Z,100653.25
2022-12-11T12:07:51.106Z,100687.78
2022-12-11T12:10:24.456Z,100661.94
2022-12-11T12:13:01.514Z,100690.44
2022-12-11T12:15:56.008Z,100668.97
2022-12-11T12:18:59.536Z,100672.53
2022-12-11T12:21:36.740Z,100678.44
2022-12-11T12:24:28.550Z,100683.53
2022-12-11T12:27:50.064Z,100683.53
2022-12-11T12:30:14.141Z,100642.13
2022-12-11T12:33:17.653Z,100680.13
2022-12-11T12:36:11.099Z,100668.13
2022-12-11T12:38:55.222Z,100676.84
2022-12-11T12:41:32.609Z,100682.81
2022-12-11T12:44:08.333Z,100672.56
2022-12-11T12:47:08.355Z,100656.31
2022-12-11T12:49:41.807Z,100622.69
2022-12-11T12:52:34.678Z,100631.38
2022-12-11T12:55:18.234Z,100633.22
2022-12-11T12:57:47.768Z,100657.44
2022-12-11T13:00:27.122Z,100636.66
2022-12-11T13:02:56.128Z,100621.13
2022-12-11T13:05:26.437Z,100613.41
2022-12-11T13:07:59.854Z,100655.69
2022-12-11T13:10:34.702Z,100654.84
2022-12-11T13:13:02.579Z,100630.69
2022-12-11T13:15:34.347Z,100641.84
2022-12-11T13:18:03.954Z,100661.72
2022-12-11T13:20:34.960Z,100644.41
2022-12-11T13:23:07.558Z,100669.47
2022-12-11T13:25:47.726Z,100670.34
2022-12-11T13:28:40.697Z,100665.22
2022-12-11T13:31:16.505Z,100666.06
2022-12-11T13:33:47.473Z,100651.44
2022-12-11T13:36:18.919Z,100623.06
2022-12-11T13:38:55.138Z,100609.38
2022-12-11T13:41:22.443Z,100602.53
2022-12-11T13:43:50.706Z,100602.53
2022-12-11T13:46:25.811Z,100637.03
2022-12-11T13:48:57.303Z,100612.16
2022-12-11T13:51:25.836Z,100616.56
2022-12-11T13:54:17.600Z,100589.84
2022-12-11T13:57:02.446Z,100609.72
2022-12-11T13:59:38.079Z,100577.91
2022-12-11T14:02:31.084Z,100633.22
2022-12-11T14:05:02.239Z,100567.75
2022-12-11T14:07:33.602Z,100613.44
2022-12-11T14:10:17.061Z,100602.25
2022-12-11T14:12:57.299Z,100595.41
2022-12-11T14:15:24.918Z,100632.56
2022-12-11T14:17:52.801Z,100615.31
2022-12-11T14:20:22.939Z,100589.56
2022-12-11T14:22:49.590Z,100600.00
2022-12-11T14:25:27.494Z,100614.66
2022-12-11T14:27:56.841Z,100606.94
2022-12-11T14:30:30.045Z,100578.53
2022-12-11T14:32:59.960Z,100594.94
2022-12-11T14:35:32.874Z,100607.91
2022-12-11T14:38:12.840Z,100625.09
2022-12-11T14:40:44.005Z,100618.22
2022-12-11T14:43:23.425Z,100615.69
2022-12-11T14:45:54.457Z,100613.16
2022-12-11T14:48:27.833Z,100607.06
2022-12-11T14:51:00.196Z,100595.91
2022-12-11T14:53:31.368Z,100603.63
2022-12-11T14:56:02.817Z,100626.06
2022-12-11T14:58:30.242Z,100637.25
2022-12-11T15:01:03.151Z,100620.81
2022-12-11T15:03:34.582Z,100648.41
2022-12-11T15:06:02.913Z,100634.59
2022-12-11T15:08:37.328Z,100646.69
2022-12-11T15:11:05.719Z,100632.91
2022-12-11T15:13:33.761Z,100645.91
2022-12-11T15:16:00.638Z,100648.56
2022-12-11T15:18:34.120Z,100624.53
2022-12-11T15:21:07.429Z,100601.34
2022-12-11T15:23:59.087Z,100634.91
2022-12-11T15:26:38.279Z,100548.72
2022-12-11T15:29:22.825Z,100604.72
2022-12-11T15:32:04.344Z,100595.28
2022-12-11T15:34:47.400Z,100577.19
2022-12-11T15:37:36.901Z,100623.00
2022-12-11T15:40:05.353Z,100598.94
2022-12-11T15:42:39.977Z,100576.53
2022-12-11T15:45:09.436Z,100542.16
2022-12-11T15:47:36.170Z,100573.16
2022-12-11T15:50:26.634Z,100595.56
2022-12-11T15:52:57.056Z,100581.78
2022-12-11T15:55:27.415Z,100559.38
2022-12-11T15:58:00.854Z,100592.16
2022-12-11T16:00:28.311Z,100605.91
2022-12-11T16:02:59.297Z,100612.00
2022-12-11T16:05:27.016Z,100602.47
2022-12-11T16:07:59.678Z,100566.38
2022-12-11T16:10:27.276Z,100568.03
2022-12-11T16:12:59.451Z,100612.03
2022-12-11T16:15:27.147Z,100600.75
2022-12-11T16:18:04.787Z,100589.56
2022-12-11T16:20:35.278Z,100622.34
2022-12-11T16:23:08.759Z,100598.22
2022-12-11T16:25:38.246Z,100618.13
2022-12-11T16:28:06.608Z,100580.16
2022-12-11T16:30:35.685Z,100597.44
2022-12-11T16:33:10.249Z,100557.81
2022-12-11T16:35:40.266Z,100544.03
2022-12-11T16:38:08.020Z,100530.13
2022-12-11T16:40:34.765Z,100595.66
2022-12-11T16:43:01.431Z,100607.72
2022-12-11T16:45:28.209Z,100621.56
2022-12-11T16:47:55.142Z,100605.22
2022-12-11T16:50:25.476Z,100577.66
2022-12-11T16:52:55.037Z,100580.25
2022-12-11T16:55:22.353Z,100550.94
2022-12-11T16:57:49.102Z,100580.31
2022-12-11T17:00:16.787Z,100585.53
2022-12-11T17:02:43.726Z,100581.25
2022-12-11T17:05:12.986Z,100581.25
2022-12-11T17:07:40.466Z,100619.97
2022-12-11T17:10:07.938Z,100571.69
2022-12-11T17:12:34.874Z,100616.53
2022-12-11T17:15:01.697Z,100583.81
2022-12-11T17:17:28.422Z,100601.88
2022-12-11T17:19:55.015Z,100578.59
2022-12-11T17:22:22.052Z,100562.28
2022-12-11T17:24:48.594Z,100564.84
2022-12-11T17:27:15.303Z,100554.50
2022-12-11T17:29:41.856Z,100592.41
2022-12-11T17:32:08.857Z,100577.75
2022-12-11T17:34:38.460Z,100564.78
2022-12-11T17:37:06.278Z,100594.97
2022-12-11T17:39:33.534Z,100613.88
2022-12-11T17:42:00.382Z,100592.31
2022-12-11T17:44:30.789Z,100575.09
2022-12-11T17:46:58.703Z,100617.28
2022-12-11T17:49:26.524Z,100615.56
2022-12-11T17:51:55.393Z,100600.84
2022-12-11T17:54:24.158Z,100618.97
2022-12-11T17:56:51.072Z,100604.28
2022-12-11T17:59:17.717Z,100614.56
2022-12-11T18:01:44.295Z,100624.97
2022-12-11T18:04:11.041Z,100628.38
2022-12-11T18:06:37.800Z,100617.19
2022-12-11T18:09:06.099Z,100613.72
2022-12-11T18:11:32.738Z,100606.88
2022-12-11T18:13:59.629Z,100622.34
2022-12-11T18:16:29.787Z,100607.78
2022-12-11T18:18:56.610Z,100611.22
2022-12-11T18:21:32.371Z,100580.16
2022-12-11T18:24:00.067Z,100619.84
2022-12-11T18:26:26.745Z,100579.31
2022-12-11T18:28:53.800Z,100605.19
2022-12-11T18:31:21.787Z,100619.84
2022-12-11T18:33:48.879Z,100616.41
2022-12-11T18:36:17.415Z,100614.69
2022-12-11T18:38:47.192Z,100578.53
2022-12-11T18:41:16.434Z,100601.81
2022-12-11T18:43:43.007Z,100571.63
2022-12-11T18:46:12.602Z,100611.22
2022-12-11T18:48:39.171Z,100604.38
2022-12-11T18:51:11.065Z,100611.22
2022-12-11T18:53:39.516Z,100576.72
2022-12-11T18:56:09.124Z,100585.38
2022-12-11T18:58:36.277Z,100614.66
2022-12-11T19:01:18.220Z,100583.63
2022-12-11T19:03:45.060Z,100612.94
2022-12-11T19:06:21.895Z,100584.53
2022-12-11T19:08:48.642Z,100560.38
2022-12-11T19:11:17.677Z,100607.72
2022-12-11T19:13:44.782Z,100614.66
2022-12-11T19:16:20.041Z,100616.38
2022-12-11T19:18:49.111Z,100599.97
2022-12-11T19:21:17.157Z,100630.03
2022-12-11T19:23:44.706Z,100619.78
2022-12-11T19:26:17.650Z,100612.91
2022-12-11T19:28:44.585Z,100616.34
2022-12-11T19:31:21.179Z,100609.44
2022-12-11T19:33:48.188Z,100620.63
2022-12-11T19:36:18.353Z,100620.69
2022-12-11T19:38:45.886Z,100619.78
2022-12-11T19:41:23.494Z,100618.13
2022-12-11T19:43:51.080Z,100602.56
2022-12-11T19:46:18.297Z,100578.44
2022-12-11T19:48:45.169Z,100624.91
2022-12-11T19:51:20.201Z,100625.78
2022-12-11T19:53:48.101Z,100599.06
2022-12-11T19:56:15.906Z,100602.56
2022-12-11T19:58:42.724Z,100599.06
2022-12-11T20:01:10.496Z,100606.84
2022-12-11T20:03:37.155Z,100592.16
2022-12-11T20:06:08.060Z,100611.97
2022-12-11T20:08:44.576Z,100621.38
2022-12-11T20:11:17.951Z,100591.22
2022-12-11T20:13:48.630Z,100586.91
2022-12-11T20:16:16.979Z,100595.53
2022-12-11T20:18:43.893Z,100604.13
2022-12-11T20:21:17.439Z,100612.66
2022-12-11T20:23:44.674Z,100579.03
2022-12-11T20:26:14.496Z,100584.13
2022-12-11T20:28:41.455Z,100591.94
2022-12-11T20:31:16.435Z,100616.94
2022-12-11T20:33:46.704Z,100617.69
2022-12-11T20:36:15.116Z,100635.78
2022-12-11T20:38:41.766Z,100602.19
2022-12-11T20:41:10.752Z,100635.81
2022-12-11T20:43:38.492Z,100607.38
2022-12-11T20:46:06.954Z,100598.72
2022-12-11T20:48:34.544Z,100614.16
2022-12-11T20:51:02.736Z,100630.50
2022-12-11T20:53:30.022Z,100633.06
2022-12-11T20:55:57.356Z,100640.00
2022-12-11T20:58:24.234Z,100596.91
2022-12-11T21:00:51.055Z,100634.00
2022-12-11T21:03:17.906Z,100618.44
2022-12-11T21:05:45.763Z,100643.38
2022-12-11T21:08:12.831Z,100631.28
2022-12-11T21:10:44.936Z,100617.59
2022-12-11T21:13:11.494Z,100644.19
2022-12-11T21:15:39.757Z,100614.94
2022-12-11T21:18:07.696Z,100603.69
2022-12-11T21:20:35.523Z,100630.38
2022-12-11T21:23:03.865Z,100641.66
2022-12-11T21:25:30.869Z,100608.94
2022-12-11T21:27:57.388Z,100616.69
2022-12-11T21:30:24.047Z,100647.72
2022-12-11T21:32:50.648Z,100588.25
2022-12-11T21:35:17.727Z,100639.06
2022-12-11T21:37:44.478Z,100612.38
2022-12-11T21:40:14.305Z,100649.44
2022-12-11T21:42:41.078Z,100604.59
2022-12-11T21:45:52.171Z,100617.53
2022-12-11T21:47:54.364Z,100629.59
2022-12-11T21:50:21.503Z,100602.00
2022-12-11T21:52:48.157Z,100611.53
2022-12-11T21:55:15.039Z,100636.53
2022-12-11T21:57:41.915Z,100625.31
2022-12-11T22:00:09.660Z,100637.38
2022-12-11T22:02:40.733Z,100603.81
2022-12-11T22:05:08.645Z,100619.31
2022-12-11T22:07:35.267Z,100653.78
2022-12-11T22:10:02.396Z,100602.03
2022-12-11T22:12:29.999Z,100630.44
2022-12-11T22:14:56.921Z,100631.31
2022-12-11T22:17:24.326Z,100623.56
2022-12-11T22:19:52.111Z,100640.81
2022-12-11T22:22:19.387Z,100649.44
2022-12-11T22:24:46.688Z,100663.19
2022-12-11T22:27:13.377Z,100634.69
2022-12-11T22:29:39.974Z,100634.69
2022-12-11T22:32:06.604Z,100661.44
2022-12-11T22:34:33.134Z,100629.56
2022-12-11T22:36:59.666Z,100621.78
2022-12-11T22:39:26.350Z,100652.00
2022-12-11T22:41:52.901Z,100627.78
2022-12-11T22:44:20.898Z,100650.19
2022-12-11T22:46:50.415Z,100626.06
2022-12-11T22:49:20.541Z,100674.34
2022-12-11T22:51:47.230Z,100664.00
2022-12-11T22:54:13.835Z,100646.69
2022-12-11T22:56:40.514Z,100650.94
2022-12-11T22:59:07.650Z,100640.56
2022-12-11T23:01:34.754Z,100667.28
2022-12-11T23:04:01.793Z,100662.91
2022-12-11T23:06:28.452Z,100687.06
2022-12-11T23:08:58.640Z,100693.13
2022-12-11T23:11:28.459Z,100699.13
2022-12-11T23:13:56.353Z,100694.78
2022-12-11T23:16:24.949Z,100684.53
2022-12-11T23:18:52.231Z,100686.22
2022-12-11T23:21:18.999Z,100657.78
2022-12-11T23:23:45.749Z,100673.34
2022-12-11T23:26:13.926Z,100681.16
2022-12-11T23:28:41.452Z,100648.41
2022-12-11T23:31:10.161Z,100677.75
2022-12-11T23:33:37.379Z,100675.25
2022-12-11T23:36:05.058Z,100642.50
2022-12-11T23:38:32.082Z,100672.63
2022-12-11T23:41:01.617Z,100671.84
2022-12-11T23:43:28.625Z,100661.44
2022-12-11T23:45:55.265Z,100651.91
2022-12-11T23:48:21.964Z,100648.47
2022-12-11T23:50:48.546Z,100681.25
2022-12-11T23:53:15.583Z,100644.97
2022-12-11T23:55:44.381Z,100664.81
2022-12-11T23:58:11.234Z,100659.66
